sensor_id;sensor_type;location;lat;lon;timestamp;P1;durP1;ratioP1;P2;durP2;ratioP2
65172;SDS011;51758;52.218;5.172;2022-12-07T00:01:03;14.00;;;5.97;;
65172;SDS011;51758;52.218;5.172;2022-12-07T00:03:32;12.07;;;5.50;;
65172;SDS011;51758;52.218;5.172;2022-12-07T00:06:01;11.35;;;5.38;;
65172;SDS011;51758;52.218;5.172;2022-12-07T00:08:29;10.70;;;5.65;;
65172;SDS011;51758;52.218;5.172;2022-12-07T00:11:00;12.47;;;5.73;;
65172;SDS011;51758;52.218;5.172;2022-12-07T00:13:30;11.33;;;5.63;;
65172;SDS011;51758;52.218;5.172;2022-12-07T00:15:59;14.60;;;6.27;;
65172;SDS011;51758;52.218;5.172;2022-12-07T00:18:29;12.50;;;5.93;;
65172;SDS011;51758;52.218;5.172;2022-12-07T00:20:59;13.77;;;5.43;;
65172;SDS011;51758;52.218;5.172;2022-12-07T00:23:27;13.33;;;5.13;;
65172;SDS011;51758;52.218;5.172;2022-12-07T00:25:55;10.27;;;5.17;;
65172;SDS011;51758;52.218;5.172;2022-12-07T00:28:23;11.90;;;4.53;;
65172;SDS011;51758;52.218;5.172;2022-12-07T00:30:52;17.27;;;5.47;;
65172;SDS011;51758;52.218;5.172;2022-12-07T00:33:26;11.93;;;4.60;;
65172;SDS011;51758;52.218;5.172;2022-12-07T00:35:55;8.77;;;4.25;;
65172;SDS011;51758;52.218;5.172;2022-12-07T00:38:23;12.82;;;4.45;;
65172;SDS011;51758;52.218;5.172;2022-12-07T00:40:55;13.23;;;4.47;;
65172;SDS011;51758;52.218;5.172;2022-12-07T00:43:23;12.97;;;3.97;;
65172;SDS011;51758;52.218;5.172;2022-12-07T00:45:53;7.00;;;3.90;;
65172;SDS011;51758;52.218;5.172;2022-12-07T00:48:22;10.30;;;3.83;;
65172;SDS011;51758;52.218;5.172;2022-12-07T00:50:50;11.55;;;3.92;;
65172;SDS011;51758;52.218;5.172;2022-12-07T00:53:18;10.20;;;3.60;;
65172;SDS011;51758;52.218;5.172;2022-12-07T00:55:46;15.15;;;4.35;;
65172;SDS011;51758;52.218;5.172;2022-12-07T00:58:14;6.72;;;3.15;;
65172;SDS011;51758;52.218;5.172;2022-12-07T01:00:42;9.68;;;3.28;;
65172;SDS011;51758;52.218;5.172;2022-12-07T01:03:12;8.85;;;3.63;;
65172;SDS011;51758;52.218;5.172;2022-12-07T01:05:48;10.53;;;3.53;;
65172;SDS011;51758;52.218;5.172;2022-12-07T01:08:17;11.43;;;3.60;;
65172;SDS011;51758;52.218;5.172;2022-12-07T01:10:45;7.00;;;3.22;;
65172;SDS011;51758;52.218;5.172;2022-12-07T01:13:13;11.77;;;3.60;;
65172;SDS011;51758;52.218;5.172;2022-12-07T01:15:42;9.30;;;3.33;;
65172;SDS011;51758;52.218;5.172;2022-12-07T01:20:39;7.90;;;2.83;;
65172;SDS011;51758;52.218;5.172;2022-12-07T01:23:06;9.47;;;3.33;;
65172;SDS011;51758;52.218;5.172;2022-12-07T01:25:35;5.53;;;2.80;;
65172;SDS011;51758;52.218;5.172;2022-12-07T01:28:03;12.57;;;3.38;;
65172;SDS011;51758;52.218;5.172;2022-12-07T01:30:31;13.55;;;3.25;;
65172;SDS011;51758;52.218;5.172;2022-12-07T01:32:58;12.07;;;3.60;;
65172;SDS011;51758;52.218;5.172;2022-12-07T01:35:28;9.13;;;3.20;;
65172;SDS011;51758;52.218;5.172;2022-12-07T01:37:55;13.83;;;3.10;;
65172;SDS011;51758;52.218;5.172;2022-12-07T01:40:23;11.00;;;3.30;;
65172;SDS011;51758;52.218;5.172;2022-12-07T01:42:50;11.57;;;3.20;;
65172;SDS011;51758;52.218;5.172;2022-12-07T01:48:10;10.87;;;3.23;;
65172;SDS011;51758;52.218;5.172;2022-12-07T01:50:41;10.50;;;3.30;;
65172;SDS011;51758;52.218;5.172;2022-12-07T01:53:11;7.87;;;2.97;;
65172;SDS011;51758;52.218;5.172;2022-12-07T01:55:42;8.80;;;3.07;;
65172;SDS011;51758;52.218;5.172;2022-12-07T01:58:13;6.23;;;2.30;;
65172;SDS011;51758;52.218;5.172;2022-12-07T02:00:42;10.33;;;2.53;;
65172;SDS011;51758;52.218;5.172;2022-12-07T02:03:11;8.77;;;2.67;;
65172;SDS011;51758;52.218;5.172;2022-12-07T02:05:46;7.17;;;2.27;;
65172;SDS011;51758;52.218;5.172;2022-12-07T02:08:16;6.77;;;2.40;;
65172;SDS011;51758;52.218;5.172;2022-12-07T02:13:13;7.17;;;2.50;;
65172;SDS011;51758;52.218;5.172;2022-12-07T02:15:50;7.83;;;2.00;;
65172;SDS011;51758;52.218;5.172;2022-12-07T02:18:31;8.23;;;2.33;;
65172;SDS011;51758;52.218;5.172;2022-12-07T02:21:11;7.77;;;2.00;;
65172;SDS011;51758;52.218;5.172;2022-12-07T02:23:56;12.83;;;2.17;;
65172;SDS011;51758;52.218;5.172;2022-12-07T02:29:45;7.00;;;2.07;;
65172;SDS011;51758;52.218;5.172;2022-12-07T02:32:18;10.43;;;2.50;;
65172;SDS011;51758;52.218;5.172;2022-12-07T02:34:54;13.50;;;2.43;;
65172;SDS011;51758;52.218;5.172;2022-12-07T02:37:28;8.53;;;2.30;;
65172;SDS011;51758;52.218;5.172;2022-12-07T02:40:04;9.27;;;2.57;;
65172;SDS011;51758;52.218;5.172;2022-12-07T02:42:38;6.73;;;2.17;;
65172;SDS011;51758;52.218;5.172;2022-12-07T02:45:12;11.17;;;2.50;;
65172;SDS011;51758;52.218;5.172;2022-12-07T02:47:43;7.77;;;2.40;;
65172;SDS011;51758;52.218;5.172;2022-12-07T02:50:12;8.67;;;2.63;;
65172;SDS011;51758;52.218;5.172;2022-12-07T02:52:41;8.75;;;2.50;;
65172;SDS011;51758;52.218;5.172;2022-12-07T02:55:08;7.97;;;2.30;;
65172;SDS011;51758;52.218;5.172;2022-12-07T02:57:41;9.00;;;2.67;;
65172;SDS011;51758;52.218;5.172;2022-12-07T03:00:22;9.30;;;2.30;;
65172;SDS011;51758;52.218;5.172;2022-12-07T03:02:52;13.03;;;2.80;;
65172;SDS011;51758;52.218;5.172;2022-12-07T03:05:32;8.07;;;1.90;;
65172;SDS011;51758;52.218;5.172;2022-12-07T03:08:11;6.37;;;2.23;;
65172;SDS011;51758;52.218;5.172;2022-12-07T03:10:48;6.97;;;2.23;;
65172;SDS011;51758;52.218;5.172;2022-12-07T03:13:22;11.33;;;2.50;;
65172;SDS011;51758;52.218;5.172;2022-12-07T03:15:55;6.03;;;2.27;;
65172;SDS011;51758;52.218;5.172;2022-12-07T03:18:30;7.20;;;2.07;;
65172;SDS011;51758;52.218;5.172;2022-12-07T03:21:02;7.30;;;2.30;;
65172;SDS011;51758;52.218;5.172;2022-12-07T03:23:34;7.20;;;2.40;;
65172;SDS011;51758;52.218;5.172;2022-12-07T03:26:05;6.43;;;2.47;;
65172;SDS011;51758;52.218;5.172;2022-12-07T03:28:38;13.90;;;2.83;;
65172;SDS011;51758;52.218;5.172;2022-12-07T03:31:13;10.07;;;2.90;;
65172;SDS011;51758;52.218;5.172;2022-12-07T03:33:47;9.17;;;2.57;;
65172;SDS011;51758;52.218;5.172;2022-12-07T03:36:20;9.63;;;2.50;;
65172;SDS011;51758;52.218;5.172;2022-12-07T03:38:53;8.40;;;3.50;;
65172;SDS011;51758;52.218;5.172;2022-12-07T03:41:25;10.43;;;3.77;;
65172;SDS011;51758;52.218;5.172;2022-12-07T03:43:56;14.23;;;4.80;;
65172;SDS011;51758;52.218;5.172;2022-12-07T03:46:29;7.43;;;3.53;;
65172;SDS011;51758;52.218;5.172;2022-12-07T03:49:06;10.33;;;3.00;;
65172;SDS011;51758;52.218;5.172;2022-12-07T03:51:38;8.53;;;3.10;;
65172;SDS011;51758;52.218;5.172;2022-12-07T03:54:13;8.10;;;2.50;;
65172;SDS011;51758;52.218;5.172;2022-12-07T03:56:44;11.47;;;2.20;;
65172;SDS011;51758;52.218;5.172;2022-12-07T03:59:14;11.87;;;2.73;;
65172;SDS011;51758;52.218;5.172;2022-12-07T04:01:44;11.23;;;2.93;;
65172;SDS011;51758;52.218;5.172;2022-12-07T04:04:18;6.47;;;2.40;;
65172;SDS011;51758;52.218;5.172;2022-12-07T04:06:46;6.57;;;2.20;;
65172;SDS011;51758;52.218;5.172;2022-12-07T04:09:14;11.67;;;2.57;;
65172;SDS011;51758;52.218;5.172;2022-12-07T04:14:10;9.33;;;2.20;;
65172;SDS011;51758;52.218;5.172;2022-12-07T04:16:49;8.93;;;2.83;;
65172;SDS011;51758;52.218;5.172;2022-12-07T04:19:18;8.67;;;2.50;;
65172;SDS011;51758;52.218;5.172;2022-12-07T04:21:47;9.53;;;2.47;;
65172;SDS011;51758;52.218;5.172;2022-12-07T04:24:15;11.57;;;2.73;;
65172;SDS011;51758;52.218;5.172;2022-12-07T04:26:43;7.85;;;1.45;;
65172;SDS011;51758;52.218;5.172;2022-12-07T04:29:13;8.37;;;1.47;;
65172;SDS011;51758;52.218;5.172;2022-12-07T04:31:41;8.10;;;1.35;;
65172;SDS011;51758;52.218;5.172;2022-12-07T04:34:11;10.98;;;1.50;;
65172;SDS011;51758;52.218;5.172;2022-12-07T04:36:40;7.37;;;1.20;;
65172;SDS011;51758;52.218;5.172;2022-12-07T04:39:13;8.30;;;1.67;;
65172;SDS011;51758;52.218;5.172;2022-12-07T04:41:45;6.13;;;1.13;;
65172;SDS011;51758;52.218;5.172;2022-12-07T04:44:13;8.83;;;1.10;;
65172;SDS011;51758;52.218;5.172;2022-12-07T04:46:42;7.15;;;1.10;;
65172;SDS011;51758;52.218;5.172;2022-12-07T04:49:11;11.68;;;1.52;;
65172;SDS011;51758;52.218;5.172;2022-12-07T04:51:40;6.80;;;1.20;;
65172;SDS011;51758;52.218;5.172;2022-12-07T04:54:08;6.78;;;1.33;;
65172;SDS011;51758;52.218;5.172;2022-12-07T04:56:36;6.93;;;1.40;;
65172;SDS011;51758;52.218;5.172;2022-12-07T04:59:04;9.68;;;1.65;;
65172;SDS011;51758;52.218;5.172;2022-12-07T05:01:32;6.00;;;1.40;;
65172;SDS011;51758;52.218;5.172;2022-12-07T05:04:01;9.50;;;1.83;;
65172;SDS011;51758;52.218;5.172;2022-12-07T05:06:30;9.20;;;1.57;;
65172;SDS011;51758;52.218;5.172;2022-12-07T05:08:57;11.43;;;1.83;;
65172;SDS011;51758;52.218;5.172;2022-12-07T05:11:25;5.67;;;1.77;;
65172;SDS011;51758;52.218;5.172;2022-12-07T05:14:06;11.37;;;2.10;;
65172;SDS011;51758;52.218;5.172;2022-12-07T05:16:35;4.00;;;1.63;;
65172;SDS011;51758;52.218;5.172;2022-12-07T05:19:03;9.27;;;2.30;;
65172;SDS011;51758;52.218;5.172;2022-12-07T05:21:32;7.32;;;1.85;;
65172;SDS011;51758;52.218;5.172;2022-12-07T05:24:01;9.10;;;2.40;;
65172;SDS011;51758;52.218;5.172;2022-12-07T05:26:28;6.93;;;2.35;;
65172;SDS011;51758;52.218;5.172;2022-12-07T05:28:56;10.77;;;2.60;;
65172;SDS011;51758;52.218;5.172;2022-12-07T05:31:25;7.00;;;2.05;;
65172;SDS011;51758;52.218;5.172;2022-12-07T05:36:21;17.90;;;2.83;;
65172;SDS011;51758;52.218;5.172;2022-12-07T05:38:50;7.93;;;2.60;;
65172;SDS011;51758;52.218;5.172;2022-12-07T05:41:18;6.63;;;3.17;;
65172;SDS011;51758;52.218;5.172;2022-12-07T05:44:04;13.37;;;3.30;;
65172;SDS011;51758;52.218;5.172;2022-12-07T05:46:32;10.90;;;2.90;;
65172;SDS011;51758;52.218;5.172;2022-12-07T05:49:00;8.43;;;2.80;;
65172;SDS011;51758;52.218;5.172;2022-12-07T05:51:28;8.13;;;3.00;;
65172;SDS011;51758;52.218;5.172;2022-12-07T05:53:58;13.85;;;3.53;;
65172;SDS011;51758;52.218;5.172;2022-12-07T05:56:25;8.90;;;2.90;;
65172;SDS011;51758;52.218;5.172;2022-12-07T05:58:53;15.18;;;2.97;;
65172;SDS011;51758;52.218;5.172;2022-12-07T06:01:39;8.70;;;2.67;;
65172;SDS011;51758;52.218;5.172;2022-12-07T06:04:07;7.82;;;2.40;;
65172;SDS011;51758;52.218;5.172;2022-12-07T06:06:35;11.70;;;2.73;;
65172;SDS011;51758;52.218;5.172;2022-12-07T06:09:04;13.27;;;3.75;;
65172;SDS011;51758;52.218;5.172;2022-12-07T06:11:32;8.60;;;2.57;;
65172;SDS011;51758;52.218;5.172;2022-12-07T06:14:17;8.37;;;2.20;;
65172;SDS011;51758;52.218;5.172;2022-12-07T06:16:45;9.40;;;2.27;;
65172;SDS011;51758;52.218;5.172;2022-12-07T06:19:13;10.48;;;2.15;;
65172;SDS011;51758;52.218;5.172;2022-12-07T06:21:41;11.80;;;2.03;;
65172;SDS011;51758;52.218;5.172;2022-12-07T06:24:11;8.68;;;2.53;;
65172;SDS011;51758;52.218;5.172;2022-12-07T06:26:40;8.30;;;2.53;;
65172;SDS011;51758;52.218;5.172;2022-12-07T06:29:08;9.80;;;2.13;;
65172;SDS011;51758;52.218;5.172;2022-12-07T06:31:36;6.65;;;2.50;;
65172;SDS011;51758;52.218;5.172;2022-12-07T06:34:05;10.95;;;3.33;;
65172;SDS011;51758;52.218;5.172;2022-12-07T06:36:34;13.03;;;3.50;;
65172;SDS011;51758;52.218;5.172;2022-12-07T06:39:02;16.97;;;3.47;;
65172;SDS011;51758;52.218;5.172;2022-12-07T06:41:32;11.40;;;3.40;;
65172;SDS011;51758;52.218;5.172;2022-12-07T06:44:00;13.77;;;3.60;;
65172;SDS011;51758;52.218;5.172;2022-12-07T06:46:28;8.53;;;2.80;;
65172;SDS011;51758;52.218;5.172;2022-12-07T06:48:55;9.97;;;2.80;;
65172;SDS011;51758;52.218;5.172;2022-12-07T06:51:23;9.80;;;2.60;;
65172;SDS011;51758;52.218;5.172;2022-12-07T06:53:52;13.10;;;3.88;;
65172;SDS011;51758;52.218;5.172;2022-12-07T06:56:20;10.15;;;3.50;;
65172;SDS011;51758;52.218;5.172;2022-12-07T07:03:46;11.80;;;3.42;;
65172;SDS011;51758;52.218;5.172;2022-12-07T07:06:14;11.00;;;4.22;;
65172;SDS011;51758;52.218;5.172;2022-12-07T07:08:42;13.77;;;4.13;;
65172;SDS011;51758;52.218;5.172;2022-12-07T07:11:10;8.55;;;3.70;;
65172;SDS011;51758;52.218;5.172;2022-12-07T07:13:38;11.65;;;4.00;;
65172;SDS011;51758;52.218;5.172;2022-12-07T07:16:07;13.10;;;3.53;;
65172;SDS011;51758;52.218;5.172;2022-12-07T07:18:36;12.77;;;3.80;;
65172;SDS011;51758;52.218;5.172;2022-12-07T07:21:04;15.47;;;3.90;;
65172;SDS011;51758;52.218;5.172;2022-12-07T07:23:32;16.00;;;4.97;;
65172;SDS011;51758;52.218;5.172;2022-12-07T07:26:00;15.18;;;4.60;;
65172;SDS011;51758;52.218;5.172;2022-12-07T07:28:28;11.90;;;4.00;;
65172;SDS011;51758;52.218;5.172;2022-12-07T07:30:55;12.27;;;4.00;;
65172;SDS011;51758;52.218;5.172;2022-12-07T07:33:24;9.60;;;3.60;;
65172;SDS011;51758;52.218;5.172;2022-12-07T07:35:52;10.03;;;3.33;;
65172;SDS011;51758;52.218;5.172;2022-12-07T07:38:20;8.73;;;3.50;;
65172;SDS011;51758;52.218;5.172;2022-12-07T07:40:47;10.87;;;3.20;;
65172;SDS011;51758;52.218;5.172;2022-12-07T07:43:15;10.07;;;3.50;;
65172;SDS011;51758;52.218;5.172;2022-12-07T07:45:43;15.37;;;4.53;;
65172;SDS011;51758;52.218;5.172;2022-12-07T07:48:11;12.63;;;4.35;;
65172;SDS011;51758;52.218;5.172;2022-12-07T07:50:40;18.00;;;6.80;;
65172;SDS011;51758;52.218;5.172;2022-12-07T07:53:08;17.93;;;6.70;;
65172;SDS011;51758;52.218;5.172;2022-12-07T07:55:36;10.38;;;4.80;;
65172;SDS011;51758;52.218;5.172;2022-12-07T07:58:03;13.87;;;5.33;;
65172;SDS011;51758;52.218;5.172;2022-12-07T08:00:31;11.37;;;4.60;;
65172;SDS011;51758;52.218;5.172;2022-12-07T08:02:59;14.57;;;4.47;;
65172;SDS011;51758;52.218;5.172;2022-12-07T08:05:26;13.10;;;4.03;;
65172;SDS011;51758;52.218;5.172;2022-12-07T08:07:55;11.53;;;3.30;;
65172;SDS011;51758;52.218;5.172;2022-12-07T08:10:24;6.37;;;2.73;;
65172;SDS011;51758;52.218;5.172;2022-12-07T08:12:52;9.80;;;2.50;;
65172;SDS011;51758;52.218;5.172;2022-12-07T08:15:40;6.37;;;2.07;;
65172;SDS011;51758;52.218;5.172;2022-12-07T08:18:09;10.50;;;2.60;;
65172;SDS011;51758;52.218;5.172;2022-12-07T08:20:38;14.43;;;3.45;;
65172;SDS011;51758;52.218;5.172;2022-12-07T08:25:36;7.37;;;2.47;;
65172;SDS011;51758;52.218;5.172;2022-12-07T08:28:04;5.75;;;2.42;;
65172;SDS011;51758;52.218;5.172;2022-12-07T08:30:32;10.67;;;3.03;;
65172;SDS011;51758;52.218;5.172;2022-12-07T08:33:00;10.82;;;3.70;;
65172;SDS011;51758;52.218;5.172;2022-12-07T08:35:28;12.33;;;2.57;;
65172;SDS011;51758;52.218;5.172;2022-12-07T08:37:55;6.93;;;2.87;;
65172;SDS011;51758;52.218;5.172;2022-12-07T08:40:25;10.50;;;2.72;;
65172;SDS011;51758;52.218;5.172;2022-12-07T08:42:53;10.17;;;2.30;;
65172;SDS011;51758;52.218;5.172;2022-12-07T08:45:20;14.23;;;2.40;;
65172;SDS011;51758;52.218;5.172;2022-12-07T08:47:53;10.20;;;2.70;;
65172;SDS011;51758;52.218;5.172;2022-12-07T08:50:24;6.80;;;2.23;;
65172;SDS011;51758;52.218;5.172;2022-12-07T08:52:52;10.00;;;2.23;;
65172;SDS011;51758;52.218;5.172;2022-12-07T08:55:22;8.13;;;2.47;;
65172;SDS011;51758;52.218;5.172;2022-12-07T08:57:52;8.10;;;2.20;;
65172;SDS011;51758;52.218;5.172;2022-12-07T09:00:20;8.38;;;1.98;;
65172;SDS011;51758;52.218;5.172;2022-12-07T09:02:48;9.35;;;1.92;;
65172;SDS011;51758;52.218;5.172;2022-12-07T09:05:16;7.40;;;1.97;;
65172;SDS011;51758;52.218;5.172;2022-12-07T09:07:43;9.27;;;1.77;;
65172;SDS011;51758;52.218;5.172;2022-12-07T09:10:15;6.30;;;2.30;;
65172;SDS011;51758;52.218;5.172;2022-12-07T09:12:44;7.53;;;2.00;;
65172;SDS011;51758;52.218;5.172;2022-12-07T09:15:12;9.87;;;1.77;;
65172;SDS011;51758;52.218;5.172;2022-12-07T09:17:39;8.73;;;2.00;;
65172;SDS011;51758;52.218;5.172;2022-12-07T09:20:07;10.17;;;2.40;;
65172;SDS011;51758;52.218;5.172;2022-12-07T09:22:35;6.15;;;2.40;;
65172;SDS011;51758;52.218;5.172;2022-12-07T09:25:04;7.77;;;2.30;;
65172;SDS011;51758;52.218;5.172;2022-12-07T09:30:01;7.10;;;1.80;;
65172;SDS011;51758;52.218;5.172;2022-12-07T09:32:29;7.83;;;1.97;;
65172;SDS011;51758;52.218;5.172;2022-12-07T09:34:57;6.67;;;1.80;;
65172;SDS011;51758;52.218;5.172;2022-12-07T09:37:24;10.87;;;2.23;;
65172;SDS011;51758;52.218;5.172;2022-12-07T09:39:52;10.37;;;2.97;;
65172;SDS011;51758;52.218;5.172;2022-12-07T09:42:25;11.80;;;2.83;;
65172;SDS011;51758;52.218;5.172;2022-12-07T09:44:55;8.17;;;2.43;;
65172;SDS011;51758;52.218;5.172;2022-12-07T09:47:26;7.13;;;2.60;;
65172;SDS011;51758;52.218;5.172;2022-12-07T09:49:55;12.20;;;3.20;;
65172;SDS011;51758;52.218;5.172;2022-12-07T09:52:28;10.20;;;3.37;;
65172;SDS011;51758;52.218;5.172;2022-12-07T09:55:07;11.33;;;2.70;;
65172;SDS011;51758;52.218;5.172;2022-12-07T09:57:38;7.60;;;2.27;;
65172;SDS011;51758;52.218;5.172;2022-12-07T10:00:07;11.13;;;3.30;;
65172;SDS011;51758;52.218;5.172;2022-12-07T10:02:42;13.27;;;4.57;;
65172;SDS011;51758;52.218;5.172;2022-12-07T10:05:12;7.90;;;2.73;;
65172;SDS011;51758;52.218;5.172;2022-12-07T10:07:49;8.43;;;2.40;;
65172;SDS011;51758;52.218;5.172;2022-12-07T10:10:17;7.25;;;2.55;;
65172;SDS011;51758;52.218;5.172;2022-12-07T10:12:57;5.90;;;2.17;;
65172;SDS011;51758;52.218;5.172;2022-12-07T10:18:25;7.07;;;1.90;;
65172;SDS011;51758;52.218;5.172;2022-12-07T10:21:10;10.80;;;2.17;;
65172;SDS011;51758;52.218;5.172;2022-12-07T10:23:41;5.47;;;1.67;;
65172;SDS011;51758;52.218;5.172;2022-12-07T10:26:19;6.20;;;2.10;;
65172;SDS011;51758;52.218;5.172;2022-12-07T10:28:52;9.07;;;2.30;;
65172;SDS011;51758;52.218;5.172;2022-12-07T10:31:21;6.78;;;2.00;;
65172;SDS011;51758;52.218;5.172;2022-12-07T10:33:52;11.23;;;1.97;;
65172;SDS011;51758;52.218;5.172;2022-12-07T10:36:22;11.00;;;1.90;;
65172;SDS011;51758;52.218;5.172;2022-12-07T10:38:53;5.13;;;1.40;;
65172;SDS011;51758;52.218;5.172;2022-12-07T10:41:25;6.23;;;1.80;;
65172;SDS011;51758;52.218;5.172;2022-12-07T10:43:54;9.13;;;1.97;;
65172;SDS011;51758;52.218;5.172;2022-12-07T10:52:59;4.70;;;1.70;;
65172;SDS011;51758;52.218;5.172;2022-12-07T10:55:41;9.07;;;2.17;;
65172;SDS011;51758;52.218;5.172;2022-12-07T10:58:26;5.87;;;1.70;;
65172;SDS011;51758;52.218;5.172;2022-12-07T11:01:04;7.30;;;1.47;;
65172;SDS011;51758;52.218;5.172;2022-12-07T11:03:53;11.00;;;1.93;;
65172;SDS011;51758;52.218;5.172;2022-12-07T11:06:34;4.27;;;1.40;;
65172;SDS011;51758;52.218;5.172;2022-12-07T11:09:24;8.37;;;1.67;;
65172;SDS011;51758;52.218;5.172;2022-12-07T11:12:34;6.13;;;1.73;;
65172;SDS011;51758;52.218;5.172;2022-12-07T11:15:32;6.23;;;1.50;;
65172;SDS011;51758;52.218;5.172;2022-12-07T11:18:22;7.67;;;1.60;;
65172;SDS011;51758;52.218;5.172;2022-12-07T11:20:55;9.13;;;1.63;;
65172;SDS011;51758;52.218;5.172;2022-12-07T11:23:34;6.77;;;1.30;;
65172;SDS011;51758;52.218;5.172;2022-12-07T11:26:14;18.93;;;2.10;;
65172;SDS011;51758;52.218;5.172;2022-12-07T11:28:56;5.17;;;1.23;;
65172;SDS011;51758;52.218;5.172;2022-12-07T11:31:37;7.67;;;1.70;;
65172;SDS011;51758;52.218;5.172;2022-12-07T11:34:21;11.60;;;1.77;;
65172;SDS011;51758;52.218;5.172;2022-12-07T11:39:31;10.30;;;1.53;;
65172;SDS011;51758;52.218;5.172;2022-12-07T11:42:04;7.97;;;1.77;;
65172;SDS011;51758;52.218;5.172;2022-12-07T11:44:47;7.63;;;1.70;;
65172;SDS011;51758;52.218;5.172;2022-12-07T11:47:20;7.27;;;1.60;;
65172;SDS011;51758;52.218;5.172;2022-12-07T11:49:54;7.20;;;1.60;;
65172;SDS011;51758;52.218;5.172;2022-12-07T11:52:32;8.03;;;1.60;;
65172;SDS011;51758;52.218;5.172;2022-12-07T11:55:16;7.53;;;1.80;;
65172;SDS011;51758;52.218;5.172;2022-12-07T11:57:50;5.57;;;1.37;;
65172;SDS011;51758;52.218;5.172;2022-12-07T12:00:23;5.63;;;1.40;;
65172;SDS011;51758;52.218;5.172;2022-12-07T12:02:52;3.67;;;1.50;;
65172;SDS011;51758;52.218;5.172;2022-12-07T12:05:25;5.37;;;1.43;;
65172;SDS011;51758;52.218;5.172;2022-12-07T12:07:55;7.32;;;2.15;;
65172;SDS011;51758;52.218;5.172;2022-12-07T12:10:54;6.57;;;1.43;;
65172;SDS011;51758;52.218;5.172;2022-12-07T12:13:29;8.83;;;1.87;;
65172;SDS011;51758;52.218;5.172;2022-12-07T12:19:36;9.97;;;2.80;;
65172;SDS011;51758;52.218;5.172;2022-12-07T12:22:10;10.20;;;1.87;;
65172;SDS011;51758;52.218;5.172;2022-12-07T12:24:42;8.43;;;2.13;;
65172;SDS011;51758;52.218;5.172;2022-12-07T12:27:19;5.00;;;1.40;;
65172;SDS011;51758;52.218;5.172;2022-12-07T12:29:52;7.23;;;1.80;;
65172;SDS011;51758;52.218;5.172;2022-12-07T12:32:23;5.67;;;1.13;;
65172;SDS011;51758;52.218;5.172;2022-12-07T12:37:54;2.73;;;0.80;;
65172;SDS011;51758;52.218;5.172;2022-12-07T12:46:38;4.83;;;0.97;;
65172;SDS011;51758;52.218;5.172;2022-12-07T12:55:22;5.27;;;1.00;;
65172;SDS011;51758;52.218;5.172;2022-12-07T12:58:32;5.33;;;1.40;;
65172;SDS011;51758;52.218;5.172;2022-12-07T13:04:22;4.03;;;1.33;;
65172;SDS011;51758;52.218;5.172;2022-12-07T13:06:54;4.50;;;1.50;;
65172;SDS011;51758;52.218;5.172;2022-12-07T13:09:22;5.60;;;1.43;;
65172;SDS011;51758;52.218;5.172;2022-12-07T13:11:56;4.97;;;1.47;;
65172;SDS011;51758;52.218;5.172;2022-12-07T13:20:41;8.10;;;2.57;;
65172;SDS011;51758;52.218;5.172;2022-12-07T13:23:11;7.60;;;1.67;;
65172;SDS011;51758;52.218;5.172;2022-12-07T13:25:45;6.23;;;2.13;;
65172;SDS011;51758;52.218;5.172;2022-12-07T13:28:18;3.67;;;1.60;;
65172;SDS011;51758;52.218;5.172;2022-12-07T13:31:00;5.07;;;1.63;;
65172;SDS011;51758;52.218;5.172;2022-12-07T13:33:36;6.90;;;2.10;;
65172;SDS011;51758;52.218;5.172;2022-12-07T13:36:08;9.52;;;2.92;;
65172;SDS011;51758;52.218;5.172;2022-12-07T13:38:48;6.50;;;1.77;;
65172;SDS011;51758;52.218;5.172;2022-12-07T13:41:18;5.50;;;1.40;;
65172;SDS011;51758;52.218;5.172;2022-12-07T13:43:49;7.50;;;1.47;;
65172;SDS011;51758;52.218;5.172;2022-12-07T13:46:19;3.60;;;1.43;;
65172;SDS011;51758;52.218;5.172;2022-12-07T13:48:53;5.67;;;1.50;;
65172;SDS011;51758;52.218;5.172;2022-12-07T13:51:24;3.80;;;1.20;;
65172;SDS011;51758;52.218;5.172;2022-12-07T13:53:55;6.57;;;1.57;;
65172;SDS011;51758;52.218;5.172;2022-12-07T13:56:27;3.97;;;1.07;;
65172;SDS011;51758;52.218;5.172;2022-12-07T13:58:59;5.30;;;1.57;;
65172;SDS011;51758;52.218;5.172;2022-12-07T14:01:27;3.93;;;1.30;;
65172;SDS011;51758;52.218;5.172;2022-12-07T14:06:59;5.77;;;2.00;;
65172;SDS011;51758;52.218;5.172;2022-12-07T14:09:28;5.93;;;2.33;;
65172;SDS011;51758;52.218;5.172;2022-12-07T14:11:56;3.00;;;1.10;;
65172;SDS011;51758;52.218;5.172;2022-12-07T14:17:08;3.37;;;1.10;;
65172;SDS011;51758;52.218;5.172;2022-12-07T14:19:49;3.23;;;1.40;;
65172;SDS011;51758;52.218;5.172;2022-12-07T14:22:21;6.40;;;1.60;;
65172;SDS011;51758;52.218;5.172;2022-12-07T14:24:57;4.27;;;1.00;;
65172;SDS011;51758;52.218;5.172;2022-12-07T14:27:30;3.57;;;1.03;;
65172;SDS011;51758;52.218;5.172;2022-12-07T14:30:00;1.43;;;0.80;;
65172;SDS011;51758;52.218;5.172;2022-12-07T14:32:28;6.32;;;1.90;;
65172;SDS011;51758;52.218;5.172;2022-12-07T14:37:28;6.00;;;1.73;;
65172;SDS011;51758;52.218;5.172;2022-12-07T14:39:56;7.03;;;3.60;;
65172;SDS011;51758;52.218;5.172;2022-12-07T14:42:26;7.37;;;2.57;;
65172;SDS011;51758;52.218;5.172;2022-12-07T14:44:55;5.87;;;2.03;;
65172;SDS011;51758;52.218;5.172;2022-12-07T14:47:23;2.03;;;1.30;;
65172;SDS011;51758;52.218;5.172;2022-12-07T14:50:12;7.43;;;1.53;;
65172;SDS011;51758;52.218;5.172;2022-12-07T14:52:43;3.23;;;1.20;;
65172;SDS011;51758;52.218;5.172;2022-12-07T14:55:33;3.17;;;1.30;;
65172;SDS011;51758;52.218;5.172;2022-12-07T14:58:01;2.27;;;1.20;;
65172;SDS011;51758;52.218;5.172;2022-12-07T15:00:29;5.23;;;1.27;;
65172;SDS011;51758;52.218;5.172;2022-12-07T15:02:57;3.25;;;1.50;;
65172;SDS011;51758;52.218;5.172;2022-12-07T15:05:25;6.47;;;1.40;;
65172;SDS011;51758;52.218;5.172;2022-12-07T15:07:54;5.23;;;1.50;;
65172;SDS011;51758;52.218;5.172;2022-12-07T15:10:22;3.00;;;1.53;;
65172;SDS011;51758;52.218;5.172;2022-12-07T15:12:55;5.63;;;1.70;;
65172;SDS011;51758;52.218;5.172;2022-12-07T15:15:43;7.70;;;2.22;;
65172;SDS011;51758;52.218;5.172;2022-12-07T15:18:11;6.73;;;2.20;;
65172;SDS011;51758;52.218;5.172;2022-12-07T15:20:38;7.27;;;2.90;;
65172;SDS011;51758;52.218;5.172;2022-12-07T15:23:08;11.40;;;3.60;;
65172;SDS011;51758;52.218;5.172;2022-12-07T15:25:36;7.97;;;3.83;;
65172;SDS011;51758;52.218;5.172;2022-12-07T15:28:07;9.13;;;3.47;;
65172;SDS011;51758;52.218;5.172;2022-12-07T15:30:36;5.30;;;2.50;;
65172;SDS011;51758;52.218;5.172;2022-12-07T15:33:04;8.47;;;2.53;;
65172;SDS011;51758;52.218;5.172;2022-12-07T15:35:31;6.00;;;2.63;;
65172;SDS011;51758;52.218;5.172;2022-12-07T15:37:59;12.00;;;4.03;;
65172;SDS011;51758;52.218;5.172;2022-12-07T15:40:29;11.35;;;4.55;;
65172;SDS011;51758;52.218;5.172;2022-12-07T15:42:57;10.20;;;4.00;;
65172;SDS011;51758;52.218;5.172;2022-12-07T15:45:25;6.90;;;2.80;;
65172;SDS011;51758;52.218;5.172;2022-12-07T15:47:52;11.43;;;2.47;;
65172;SDS011;51758;52.218;5.172;2022-12-07T15:53:08;5.33;;;1.50;;
65172;SDS011;51758;52.218;5.172;2022-12-07T15:55:39;6.53;;;1.70;;
65172;SDS011;51758;52.218;5.172;2022-12-07T15:58:07;9.10;;;1.70;;
65172;SDS011;51758;52.218;5.172;2022-12-07T16:00:35;8.50;;;1.60;;
65172;SDS011;51758;52.218;5.172;2022-12-07T16:03:02;7.23;;;1.87;;
65172;SDS011;51758;52.218;5.172;2022-12-07T16:05:30;11.03;;;2.93;;
65172;SDS011;51758;52.218;5.172;2022-12-07T16:07:59;10.30;;;3.27;;
65172;SDS011;51758;52.218;5.172;2022-12-07T16:10:27;7.20;;;2.47;;
65172;SDS011;51758;52.218;5.172;2022-12-07T16:12:56;7.80;;;3.37;;
65172;SDS011;51758;52.218;5.172;2022-12-07T16:15:23;7.10;;;2.90;;
65172;SDS011;51758;52.218;5.172;2022-12-07T16:17:53;7.73;;;3.60;;
65172;SDS011;51758;52.218;5.172;2022-12-07T16:20:21;7.63;;;3.65;;
65172;SDS011;51758;52.218;5.172;2022-12-07T16:22:50;8.80;;;3.40;;
65172;SDS011;51758;52.218;5.172;2022-12-07T16:25:18;11.17;;;3.50;;